Ann Arbor, MI (48108)

2:53 PM EDT on August 27, 2016 (GMT -0400)
Stonebridge | | Change Station

Elev 830 ft 42.22 °N, 83.76 °W | Updated 4 minutes ago

Rain
Rain Mist
71.8 °F
Feels Like 71.8 °F
N
0.0
Wind Variable Wind from ENE

Today
High -- | Low -- °F
--% Chance of Precip.
Yesterday
High -- | Low -- °F
Precip. -- in
Pressure 30.12 in
Visibility 3.0 miles
Clouds Few 3900 ft
Mostly Cloudy 8500 ft
Overcast 11000 ft
Dew Point 69 °F
Humidity 92%
Rainfall 0.67 in
Snow Depth Not available.
6:55 AM 8:16 PM
Waning Crescent, 22% visible
SPECI KARB 271847Z 28011G56KT 220V360 3SM RA BR FEW039 BKN085 OVC110 22/22 A3012 RMK AO2 PK WND 22056/1841 LTG DSNT NE-S TSB1755E18B21E36 P0058
Pressure 30.12 in
Visibility 3.0 miles
Clouds Few 3900 ft
Mostly Cloudy 8500 ft
Overcast 11000 ft
Dew Point 69 °F
Humidity 92%
Rainfall 0.67 in
Snow Depth Not available.
6:55 AM 8:16 PM
Waning Crescent, 22% visible
SPECI KARB 271847Z 28011G56KT 220V360 3SM RA BR FEW039 BKN085 OVC110 22/22 A3012 RMK AO2 PK WND 22056/1841 LTG DSNT NE-S TSB1755E18B21E36 P0058

10-Day Weather Forecast

Almanac

Astronomy

Aug. 27, 2016 Rise Set
Actual Time
Civil Twilight
Nautical Twilight
Astronomical Twilight
Moon
Length of Visible Light
Length of Day
Tomorrow will be .
, % of the Moon is Illuminated

Today's Extremes

State Highs State Lows

Community

WunderPhotos

Upload Photos

1,935,399 photos uploaded!

WunderBlog® & News

Nearby

Air Quality

  Air Quality AQ Index Pollutant
Not available.

Snow Depth

Station Depth Elevation

Earthquake Activity

City Distance Mag. Time & Date
Minimum magnitude displayed is 2.5.

Coastal Water Temperatures

Place Temperature

Stations

Nearby Weather Stations

Station Location Temp. Windchill Dew Point Humidity Wind Precip. Elev Updated Type
                   

Watches & Warnings

There are currently no watches in effect.